createdAt,value
2023-04-04T00:04:18.746Z,101303.94
2023-04-04T00:09:20.585Z,101296.91
2023-04-04T00:14:22.454Z,101288.81
2023-04-04T00:19:24.665Z,101285.28
2023-04-04T00:24:26.655Z,101282.00
2023-04-04T00:29:28.144Z,101270.81
2023-04-04T00:34:29.582Z,101273.50
2023-04-04T00:39:31.508Z,101268.06
2023-04-04T00:44:33.089Z,101272.31
2023-04-04T00:49:34.642Z,101262.09
2023-04-04T00:54:36.243Z,101262.44
2023-04-04T00:59:37.986Z,101261.34
2023-04-04T01:04:39.606Z,101259.22
2023-04-04T01:09:41.588Z,101249.94
2023-04-04T01:14:42.984Z,101249.16
2023-04-04T01:20:02.586Z,101249.34
2023-04-04T01:25:05.900Z,101235.47
2023-04-04T01:30:08.388Z,101228.69
2023-04-04T01:35:21.572Z,101223.97
2023-04-04T01:40:34.989Z,101224.69
2023-04-04T01:45:36.744Z,101215.84
2023-04-04T01:50:38.438Z,101217.31
2023-04-04T01:55:39.902Z,101218.66
2023-04-04T02:00:41.740Z,101214.19
2023-04-04T02:05:43.750Z,101211.47
2023-04-04T02:10:45.282Z,101209.34
2023-04-04T02:15:46.713Z,101208.97
2023-04-04T02:20:55.618Z,101206.13
2023-04-04T02:25:57.120Z,101213.78
2023-04-04T02:31:02.480Z,101209.34
2023-04-04T02:36:04.408Z,101205.53
2023-04-04T02:41:05.976Z,101210.41
2023-04-04T02:46:20.434Z,101211.84
2023-04-04T02:51:22.985Z,101219.59
2023-04-04T02:56:24.424Z,101216.31
2023-04-04T03:01:26.084Z,101217.69
2023-04-04T03:06:32.000Z,101214.19
2023-04-04T03:11:33.481Z,101213.16
2023-04-04T03:16:35.034Z,101214.91
2023-04-04T03:21:36.773Z,101213.28
2023-04-04T03:26:38.202Z,101222.56
2023-04-04T03:31:40.060Z,101219.38
2023-04-04T03:36:41.497Z,101215.16
2023-04-04T03:41:42.954Z,101214.22
2023-04-04T03:46:44.451Z,101214.22
2023-04-04T03:51:46.002Z,101213.03
2023-04-04T03:56:48.033Z,101212.91
2023-04-04T04:01:49.515Z,101208.47
2023-04-04T04:06:51.338Z,101210.97
2023-04-04T04:11:52.906Z,101212.41
2023-04-04T04:16:54.319Z,101215.25
2023-04-04T04:21:55.877Z,101221.22
2023-04-04T04:26:57.281Z,101218.34
2023-04-04T04:31:58.863Z,101215.66
2023-04-04T04:37:00.425Z,101214.13
2023-04-04T04:42:02.746Z,101217.56
2023-04-04T04:47:04.315Z,101214.53
2023-04-04T04:52:05.806Z,101214.28
2023-04-04T04:57:08.021Z,101218.59
2023-04-04T05:02:09.570Z,101214.66
2023-04-04T05:07:12.411Z,101220.06
2023-04-04T05:12:13.846Z,101219.38
2023-04-04T05:17:15.547Z,101228.91
2023-04-04T05:22:17.003Z,101229.63
2023-04-04T05:27:18.420Z,101229.88
2023-04-04T05:32:19.837Z,101230.47
2023-04-04T05:37:21.637Z,101224.13
2023-04-04T05:42:23.331Z,101231.50
2023-04-04T05:47:24.891Z,101230.63
2023-04-04T05:52:26.682Z,101235.06
2023-04-04T05:57:28.912Z,101221.13
2023-04-04T06:02:30.415Z,101227.47
2023-04-04T06:07:31.958Z,101225.03
2023-04-04T06:12:33.432Z,101227.25
2023-04-04T06:17:35.092Z,101227.25
2023-04-04T06:22:36.771Z,101222.09
2023-04-04T06:27:38.241Z,101223.47
2023-04-04T06:32:40.038Z,101228.28
2023-04-04T06:37:41.472Z,101219.53
2023-04-04T06:42:55.219Z,101220.59
2023-04-04T06:47:56.968Z,101212.81
2023-04-04T06:53:01.067Z,101211.47
2023-04-04T06:58:02.944Z,101208.88
2023-04-04T07:03:04.456Z,101212.72
2023-04-04T07:08:06.720Z,101221.47
2023-04-04T07:13:08.522Z,101219.16
2023-04-04T07:18:10.191Z,101218.97
2023-04-04T07:23:11.856Z,101218.28
2023-04-04T07:28:13.726Z,101223.38
2023-04-04T07:33:15.660Z,101216.53
2023-04-04T07:38:17.575Z,101217.16
2023-04-04T07:43:19.020Z,101218.28
2023-04-04T07:48:22.471Z,101224.97
2023-04-04T07:53:24.561Z,101214.22
2023-04-04T07:58:26.175Z,101222.03
2023-04-04T08:03:28.224Z,101216.72
2023-04-04T08:08:29.935Z,101227.34
2023-04-04T08:13:31.502Z,101215.50
2023-04-04T08:18:33.559Z,101227.88
2023-04-04T08:23:35.298Z,101212.25
2023-04-04T08:28:36.771Z,101224.88
2023-04-04T08:33:47.074Z,101219.91
2023-04-04T08:38:49.268Z,101211.06
2023-04-04T08:43:54.723Z,101205.72
2023-04-04T08:48:58.629Z,101197.81
2023-04-04T08:54:01.521Z,101211.91
2023-04-04T08:59:03.289Z,101205.66
2023-04-04T09:04:05.786Z,101194.06
2023-04-04T09:09:07.761Z,101193.09
2023-04-04T09:14:09.188Z,101189.16
2023-04-04T09:19:10.609Z,101190.13
2023-04-04T09:24:12.011Z,101184.22
2023-04-04T09:29:13.993Z,101191.53
2023-04-04T09:34:17.904Z,101186.63
2023-04-04T09:39:20.836Z,101186.63
2023-04-04T09:44:24.191Z,101196.00
2023-04-04T09:49:26.285Z,101191.66
2023-04-04T09:54:31.254Z,101196.72
2023-04-04T09:59:34.047Z,101196.06
2023-04-04T10:04:35.727Z,101185.59
2023-04-04T10:09:37.845Z,101192.78
2023-04-04T10:14:39.319Z,101195.38
2023-04-04T10:19:40.867Z,101191.59
2023-04-04T10:24:42.642Z,101180.03
2023-04-04T10:29:44.564Z,101169.38
2023-04-04T10:34:55.592Z,101166.31
2023-04-04T10:40:08.226Z,101171.31
2023-04-04T10:45:20.629Z,101169.41
2023-04-04T10:50:23.799Z,101172.03
2023-04-04T10:55:25.824Z,101166.31
2023-04-04T11:00:27.468Z,101168.06
2023-04-04T11:05:46.839Z,101148.53
2023-04-04T11:10:49.243Z,101141.03
2023-04-04T11:16:01.889Z,101135.38
2023-04-04T11:21:05.269Z,101122.09
2023-04-04T11:26:07.496Z,101126.63
2023-04-04T11:31:43.166Z,101124.78
2023-04-04T11:36:47.573Z,101122.75
2023-04-04T11:41:58.684Z,101123.50
2023-04-04T11:47:06.311Z,101118.75
2023-04-04T11:52:10.755Z,101120.47
2023-04-04T11:57:13.571Z,101125.97
2023-04-04T12:02:20.002Z,101138.00
2023-04-04T12:07:24.528Z,101120.88
2023-04-04T12:12:28.346Z,101121.47
2023-04-04T12:17:29.937Z,101121.72
2023-04-04T12:22:35.364Z,101125.47
2023-04-04T12:27:37.016Z,101101.75
2023-04-04T12:32:38.561Z,101108.91
2023-04-04T12:37:41.175Z,101100.84
2023-04-04T12:42:42.858Z,101105.84
2023-04-04T12:47:57.908Z,101097.34
2023-04-04T12:53:18.484Z,101093.84
2023-04-04T12:58:24.434Z,101093.63
2023-04-04T13:03:28.587Z,101094.59
2023-04-04T13:08:30.192Z,101100.06
2023-04-04T13:13:33.783Z,101078.19
2023-04-04T13:18:42.391Z,101075.94
2023-04-04T13:23:44.133Z,101081.91
2023-04-04T13:28:45.572Z,101077.41
2023-04-04T13:33:47.050Z,101083.03
2023-04-04T13:38:48.472Z,101094.47
2023-04-04T13:43:50.438Z,101080.19
2023-04-04T13:48:51.894Z,101088.56
2023-04-04T13:53:53.689Z,101082.16
2023-04-04T13:58:55.353Z,101075.56
2023-04-04T14:03:56.949Z,101074.06
2023-04-04T14:08:58.887Z,101075.56
2023-04-04T14:14:00.335Z,101080.09
2023-04-04T14:19:01.750Z,101074.09
2023-04-04T14:24:03.530Z,101073.44
2023-04-04T14:29:04.969Z,101077.22
2023-04-04T14:34:06.760Z,101069.66
2023-04-04T14:39:08.218Z,101064.75
2023-04-04T14:44:12.151Z,101066.81
2023-04-04T14:49:13.749Z,101068.97
2023-04-04T14:54:15.421Z,101062.38
2023-04-04T14:59:16.936Z,101075.44
2023-04-04T15:04:18.406Z,101072.47
2023-04-04T15:09:19.854Z,101072.53
2023-04-04T15:14:21.269Z,101058.16
2023-04-04T15:19:22.789Z,101045.66
2023-04-04T15:24:24.312Z,101056.16
2023-04-04T15:29:25.805Z,101052.03
2023-04-04T15:34:27.870Z,101039.09
2023-04-04T15:39:30.504Z,101035.44
2023-04-04T15:44:32.079Z,101028.19
2023-04-04T15:49:33.899Z,101033.31
2023-04-04T15:54:35.512Z,101027.66
2023-04-04T15:59:37.466Z,101038.94
2023-04-04T16:04:38.970Z,101033.41
2023-04-04T16:09:40.457Z,101035.44
2023-04-04T16:14:41.948Z,101028.75
2023-04-04T16:19:43.369Z,101028.44
2023-04-04T16:24:44.828Z,101019.50
2023-04-04T16:29:46.273Z,101013.06
2023-04-04T16:34:47.704Z,101019.81
2023-04-04T16:39:50.887Z,101017.47
2023-04-04T16:44:52.395Z,101005.72
2023-04-04T16:49:54.847Z,101002.53
2023-04-04T16:54:56.261Z,101002.78
2023-04-04T16:59:57.775Z,101004.75
2023-04-04T17:04:59.206Z,101000.72
2023-04-04T17:10:01.120Z,101003.16
2023-04-04T17:15:04.005Z,101000.16
2023-04-04T17:20:06.086Z,100992.88
2023-04-04T17:25:08.802Z,101000.50
2023-04-04T17:30:10.951Z,100992.09
2023-04-04T17:35:12.811Z,100989.53
2023-04-04T17:40:14.394Z,100990.75
2023-04-04T17:45:16.537Z,100996.09
2023-04-04T17:50:18.094Z,100986.13
2023-04-04T17:55:22.185Z,100998.22
2023-04-04T18:00:24.133Z,101002.78
2023-04-04T18:05:25.822Z,100998.88
2023-04-04T18:10:27.582Z,100991.75
2023-04-04T18:15:29.474Z,100995.47
2023-04-04T18:20:42.669Z,100999.72
2023-04-04T18:25:44.150Z,101011.47
2023-04-04T18:30:45.856Z,100995.06
2023-04-04T18:35:47.362Z,101000.75
2023-04-04T18:40:48.957Z,101008.03
2023-04-04T18:45:50.522Z,101002.91
2023-04-04T18:50:52.137Z,100999.78
2023-04-04T18:55:53.546Z,100998.47
2023-04-04T19:00:58.403Z,101004.91
2023-04-04T19:06:00.809Z,100999.09
2023-04-04T19:11:02.249Z,100999.31
2023-04-04T19:16:04.967Z,100992.66
2023-04-04T19:21:07.283Z,100987.53
2023-04-04T19:26:09.955Z,100990.59
2023-04-04T19:31:21.600Z,100989.06
2023-04-04T19:36:24.331Z,100993.56
2023-04-04T19:41:39.676Z,100989.38
2023-04-04T19:46:41.230Z,100994.63
2023-04-04T19:51:54.045Z,100998.91
2023-04-04T19:56:59.716Z,100991.00
2023-04-04T20:02:01.288Z,100988.44
2023-04-04T20:07:02.765Z,100982.25
2023-04-04T20:12:07.174Z,100980.63
2023-04-04T20:17:09.675Z,100973.41
2023-04-04T20:22:11.539Z,100969.78
2023-04-04T20:27:23.305Z,100958.91
2023-04-04T20:32:24.729Z,100961.59
2023-04-04T20:37:26.629Z,100969.34
2023-04-04T20:42:28.171Z,100967.22
2023-04-04T20:47:49.939Z,100959.94
2023-04-04T20:52:59.840Z,100962.91
2023-04-04T20:58:10.014Z,100950.19
2023-04-04T21:03:26.517Z,100951.44
2023-04-04T21:08:51.025Z,100949.94
2023-04-04T21:13:52.933Z,100946.28
2023-04-04T21:18:58.723Z,100949.03
2023-04-04T21:24:00.833Z,100938.19
2023-04-04T21:29:07.581Z,100926.59
2023-04-04T21:34:14.200Z,100927.03
2023-04-04T21:39:23.689Z,100916.09
2023-04-04T21:44:26.104Z,100928.41
2023-04-04T21:49:28.220Z,100921.66
2023-04-04T21:54:29.664Z,100920.06
2023-04-04T21:59:31.205Z,100923.28
2023-04-04T22:04:32.761Z,100914.63
2023-04-04T22:09:34.212Z,100919.28
2023-04-04T22:14:35.623Z,100904.66
2023-04-04T22:19:43.690Z,100903.03
2023-04-04T22:24:45.220Z,100894.31
2023-04-04T22:29:46.643Z,100897.59
2023-04-04T22:34:48.911Z,100903.03
2023-04-04T22:39:50.798Z,100905.16
2023-04-04T22:44:52.202Z,100896.34
2023-04-04T22:49:53.694Z,100898.09
2023-04-04T22:54:55.338Z,100897.34
2023-04-04T22:59:56.820Z,100900.19
2023-04-04T23:04:58.652Z,100897.88
2023-04-04T23:10:00.365Z,100889.94
2023-04-04T23:15:03.690Z,100891.78
2023-04-04T23:20:09.533Z,100881.31
2023-04-04T23:25:11.156Z,100878.28
2023-04-04T23:30:13.189Z,100877.78
2023-04-04T23:35:15.321Z,100875.41
2023-04-04T23:40:17.044Z,100862.03
2023-04-04T23:45:18.640Z,100863.69
2023-04-04T23:50:20.098Z,100867.09
2023-04-04T23:55:21.535Z,100864.44
